Elk Creek, NY

10:21 PM EST on January 26, 2015 (GMT -0500)
Schenectady County | Change Station
CLOSE
Current Station
Airport
Location: Schenectady,
Elevation: 377 ft
Nearby Weather Stations
Active Advisory: Winter Weather Advisory Active Notice: Public Information Statement

Elev 377 ft 42.85 °N, 73.93 °W | Updated 28 minutes ago

Overcast
Overcast
16 °F
Feels Like 4 °F
N
9
Wind Variable Wind from NE

Today
High -- | Low -- °F
--% Chance of Precip.
Yesterday
High -- | Low -- °F
Precip. -- in
7:19 AM 5:04 PM
Waxing Crescent, 49% visible
Pressure 29.98 in
Visibility 8.0 miles
Clouds Overcast 5000 ft
Windchill 4 °F
Dew Point 10 °F
Humidity 79%
Rainfall 0.00 in
Snow Depth Not available.
UV 0 out of 12
Pollen .10 out of 12
Air Quality Not available.
Flu Activity Not available.
METAR KSCH 270253Z 04008KT 8SM OVC050 M09/M12 A2998

More Conditions Fewer Conditions

Pressure 29.98 in
Visibility 8.0 miles
Clouds Overcast 5000 ft
Windchill 4 °F
Dew Point 10 °F
Humidity 79%
Rainfall 0.00 in
Snow Depth Not available.
UV 0 out of 12
Pollen .10 out of 12
Air Quality Not available.
Flu Activity Not available.
METAR KSCH 270253Z 04008KT 8SM OVC050 M09/M12 A2998

More Conditions Fewer Conditions

Nowcast | as of 8:18 PM EST on January 26, 2015

Occasional light snow will continue through midnight. Most areas will see additional accumulations through midnight of an inch or less. Localized accumulations up to 2 inches will be possible over the central southern tier and Finger Lakes of New York.

×

10-Day Weather Forecast

Almanac

Astronomy

Jan. 26, 2015 Rise Set
Actual Time
Civil Twilight
Nautical Twilight
Astronomical Twilight
Moon
Length of Visible Light
Length of Day
Tomorrow will be .
, % of the Moon is Illuminated

Today's Extremes

State Highs State Lows

Community

WunderPhotos

Upload Photos

1,790,499 photos uploaded!

WunderBlogs® & News

Nearby

Air Quality

  Air Quality AQ Index Pollutant
Not available.

Snow Depth

Station Depth Elevation

Earthquake Activity

City Distance Mag. Time & Date
Minimum magnitude displayed is 2.5.

Coastal Water Temperatures

Place Temperature

Nearby Weather Stations